Time;durP1;ratioP1;P1;durP2;ratioP2;P2;SDS_P1;SDS_P2;PMS_P1;PMS_P2;Temp;Humidity;BMP_temperature;BMP_pressure;BME280_temperature;BME280_humidity;BME280_pressure;Samples;Min_cycle;Max_cycle;Signal;HPM_P1;HPM_P2
2021/07/31 00:01:11;;;;;;;2.28;1.15;;;;;;;18.87;54.50;96700.06;4996542;28;20033;-81
2021/07/31 00:03:37;;;;;;;2.67;1.20;;;;;;;18.94;54.68;96705.66;5013596;28;20119;-80
2021/07/31 00:06:03;;;;;;;3.75;1.40;;;;;;;18.87;55.34;96702.72;4977679;28;20026;-80
2021/07/31 00:08:29;;;;;;;3.83;0.90;;;;;;;18.90;54.83;96707.34;5011697;28;20099;-81
2021/07/31 00:10:54;;;;;;;1.60;0.98;;;;;;;18.76;54.97;96699.56;5021017;28;20068;-80
2021/07/31 00:13:19;;;;;;;2.88;1.20;;;;;;;18.72;54.77;96703.91;5018779;28;20075;-80
2021/07/31 00:15:45;;;;;;;2.78;1.17;;;;;;;18.74;54.49;96707.00;5007824;28;20033;-81
2021/07/31 00:18:14;;;;;;;3.00;1.15;;;;;;;18.69;54.18;96704.50;5011837;28;20017;-80
2021/07/31 00:20:39;;;;;;;2.40;1.00;;;;;;;18.71;54.62;96707.63;5010930;28;20408;-80
2021/07/31 00:23:05;;;;;;;1.48;0.88;;;;;;;18.61;54.62;96698.16;4992832;28;20097;-80
2021/07/31 00:25:31;;;;;;;4.05;1.05;;;;;;;18.51;54.51;96701.84;5006951;28;20149;-80
2021/07/31 00:27:57;;;;;;;4.82;1.20;;;;;;;18.59;54.14;96704.81;4975950;28;20468;-80
2021/07/31 00:30:24;;;;;;;1.77;1.27;;;;;;;18.58;54.83;96704.03;5027774;28;20088;-80
2021/07/31 00:32:52;;;;;;;3.15;1.20;;;;;;;18.43;55.17;96697.34;5012447;28;20029;-80
2021/07/31 00:35:21;;;;;;;5.28;1.10;;;;;;;18.44;54.69;96701.53;4979825;28;20056;-80
2021/07/31 00:37:46;;;;;;;4.30;1.13;;;;;;;18.52;54.62;96690.25;4995025;28;20045;-80
2021/07/31 00:40:12;;;;;;;3.47;2.03;;;;;;;18.51;54.60;96699.22;4988976;28;20029;-80
2021/07/31 00:42:38;;;;;;;3.90;1.50;;;;;;;18.44;55.00;96693.63;4995935;28;20052;-80
2021/07/31 00:45:05;;;;;;;5.00;1.75;;;;;;;18.25;55.45;96679.91;4995068;28;20030;-80
2021/07/31 00:47:30;;;;;;;2.63;0.95;;;;;;;18.44;55.36;96698.09;4981283;28;20022;-81
2021/07/31 00:49:56;;;;;;;2.33;1.20;;;;;;;18.38;55.19;96692.19;4979777;28;20040;-81
2021/07/31 00:52:21;;;;;;;2.17;0.98;;;;;;;18.41;55.14;96701.38;5011728;28;20044;-80
2021/07/31 00:54:47;;;;;;;3.92;1.10;;;;;;;18.29;55.38;96699.31;4978820;28;20112;-81
2021/07/31 00:57:14;;;;;;;2.53;1.48;;;;;;;18.28;55.25;96695.13;4979513;28;20029;-80
2021/07/31 00:59:40;;;;;;;1.48;0.63;;;;;;;18.37;55.68;96705.69;4991510;28;20133;-80
2021/07/31 01:02:05;;;;;;;3.80;1.58;;;;;;;18.37;55.63;96703.06;4992133;28;20029;-80
2021/07/31 01:04:30;;;;;;;3.15;1.20;;;;;;;18.27;56.36;96693.59;4997701;28;20060;-80
2021/07/31 01:06:56;;;;;;;2.72;1.65;;;;;;;18.23;56.37;96697.91;4979398;28;20037;-80
2021/07/31 01:09:21;;;;;;;4.78;1.00;;;;;;;18.21;55.93;96700.06;4975148;28;20038;-80
2021/07/31 01:11:47;;;;;;;3.47;1.40;;;;;;;18.21;56.12;96707.97;5012267;28;20038;-80
2021/07/31 01:14:12;;;;;;;2.70;1.15;;;;;;;18.19;56.10;96699.59;4975384;28;20108;-80
2021/07/31 01:16:37;;;;;;;2.15;0.70;;;;;;;18.15;55.76;96708.09;5011860;28;20124;-80
2021/07/31 01:19:03;;;;;;;4.63;1.00;;;;;;;18.15;56.23;96699.44;4995406;28;20045;-80
2021/07/31 01:21:43;;;;;;;2.65;1.20;;;;;;;17.89;56.59;96704.56;5002144;28;20038;-80
2021/07/31 01:24:10;;;;;;;3.85;0.90;;;;;;;18.04;56.15;96701.53;4982134;28;20445;-80
2021/07/31 01:26:43;;;;;;;3.30;1.10;;;;;;;17.93;56.31;96716.84;4975375;28;20124;-80
2021/07/31 01:29:11;;;;;;;6.03;1.23;;;;;;;17.93;56.21;96693.13;4995843;28;20028;-80
2021/07/31 01:31:37;;;;;;;4.25;1.10;;;;;;;18.04;56.61;96712.06;5004083;28;20033;-80
2021/07/31 01:34:03;;;;;;;2.70;1.10;;;;;;;17.90;56.47;96706.91;4998535;28;20100;-80
2021/07/31 01:36:29;;;;;;;2.40;1.20;;;;;;;17.95;56.52;96706.00;4981990;28;20083;-79
2021/07/31 01:38:56;;;;;;;2.92;1.63;;;;;;;17.78;56.40;96702.16;4980700;28;20034;-80
2021/07/31 01:41:21;;;;;;;6.63;2.00;;;;;;;17.90;57.14;96711.41;4998699;28;20079;-80
2021/07/31 01:43:46;;;;;;;4.68;1.10;;;;;;;17.75;57.11;96710.69;4975774;28;20054;-80
2021/07/31 01:46:12;;;;;;;3.33;1.65;;;;;;;17.68;57.21;96715.59;4991859;28;20068;-80
2021/07/31 01:48:37;;;;;;;3.47;1.10;;;;;;;17.65;57.63;96707.53;4973474;28;20452;-80
2021/07/31 01:51:05;;;;;;;2.05;1.10;;;;;;;17.74;57.15;96713.63;4999158;28;20116;-80
2021/07/31 01:53:30;;;;;;;2.97;1.42;;;;;;;17.68;57.17;96712.97;5014550;28;20064;-80
2021/07/31 01:55:56;;;;;;;4.72;1.40;;;;;;;17.67;57.68;96714.06;4999174;28;20481;-80
2021/07/31 01:58:21;;;;;;;2.58;1.10;;;;;;;17.69;57.46;96719.78;4998157;28;20038;-80
2021/07/31 02:00:46;;;;;;;2.80;1.23;;;;;;;17.70;57.52;96721.34;4998306;28;20373;-81
2021/07/31 02:03:12;;;;;;;3.13;1.90;;;;;;;17.69;57.25;96721.66;4983556;28;20022;-80
2021/07/31 02:05:37;;;;;;;2.58;1.15;;;;;;;17.56;57.58;96713.53;4980949;28;20435;-80
2021/07/31 02:08:03;;;;;;;4.05;1.52;;;;;;;17.57;57.98;96712.44;5033009;28;20108;-80
2021/07/31 02:10:28;;;;;;;2.47;1.30;;;;;;;17.54;57.20;96720.16;4982356;28;20025;-80
2021/07/31 02:12:53;;;;;;;3.55;1.30;;;;;;;17.44;57.88;96720.41;5012559;28;20041;-80
2021/07/31 02:15:19;;;;;;;3.90;1.77;;;;;;;17.42;58.06;96710.19;5002322;28;20177;-81
2021/07/31 02:17:45;;;;;;;1.80;1.25;;;;;;;17.36;57.94;96712.16;5014764;28;20057;-81
2021/07/31 02:20:10;;;;;;;2.13;1.08;;;;;;;17.37;58.36;96716.31;4981934;28;20465;-81
2021/07/31 02:22:36;;;;;;;4.32;1.52;;;;;;;17.31;59.05;96711.50;5008015;28;20030;-81
2021/07/31 02:25:03;;;;;;;4.15;1.27;;;;;;;17.21;58.91;96705.38;5014389;28;20021;-80
2021/07/31 02:27:28;;;;;;;2.50;1.13;;;;;;;17.19;58.38;96696.25;4998512;28;20639;-80
2021/07/31 02:29:54;;;;;;;3.60;1.20;;;;;;;17.23;59.06;96705.88;4998175;28;20036;-80
2021/07/31 02:32:19;;;;;;;2.30;1.33;;;;;;;17.23;59.06;96711.13;5012695;28;20427;-80
2021/07/31 02:34:44;;;;;;;5.30;1.27;;;;;;;17.17;59.10;96707.06;4980600;28;20040;-80
2021/07/31 02:37:10;;;;;;;2.80;1.35;;;;;;;17.12;59.42;96693.25;4980282;28;20551;-80
2021/07/31 02:39:35;;;;;;;1.60;1.20;;;;;;;17.12;59.39;96709.03;4998023;28;20037;-80
2021/07/31 02:42:01;;;;;;;1.80;1.20;;;;;;;17.11;59.32;96699.59;4992116;28;20033;-80
2021/07/31 02:44:26;;;;;;;3.10;1.20;;;;;;;17.00;59.61;96697.19;5008584;28;20045;-80
2021/07/31 02:46:51;;;;;;;2.67;1.10;;;;;;;17.09;59.50;96709.63;5010975;28;20068;-80
2021/07/31 02:49:17;;;;;;;4.35;1.42;;;;;;;17.02;59.81;96704.78;5001219;28;20032;-79
2021/07/31 02:51:42;;;;;;;2.03;1.38;;;;;;;17.01;59.65;96709.25;5014072;28;20567;-80
2021/07/31 02:54:07;;;;;;;1.58;1.15;;;;;;;17.01;59.60;96695.34;4998088;28;20112;-80
2021/07/31 02:56:33;;;;;;;3.35;1.65;;;;;;;16.99;59.97;96703.50;5011708;28;20034;-80
2021/07/31 02:58:59;;;;;;;2.60;1.83;;;;;;;17.01;60.22;96703.22;5005226;28;20044;-81
2021/07/31 03:01:24;;;;;;;3.53;1.10;;;;;;;16.88;59.83;96689.06;5007327;28;20029;-81
2021/07/31 03:03:50;;;;;;;1.60;1.50;;;;;;;16.85;60.25;96692.28;5008376;28;20064;-80
2021/07/31 03:06:16;;;;;;;3.50;1.40;;;;;;;16.93;60.42;96696.03;5012427;28;20357;-80
2021/07/31 03:08:41;;;;;;;2.83;1.35;;;;;;;16.90;60.18;96692.16;4978186;28;20128;-81
2021/07/31 03:11:08;;;;;;;2.85;1.40;;;;;;;16.78;60.69;96689.25;5013742;28;20060;-80
2021/07/31 03:13:33;;;;;;;3.60;1.38;;;;;;;16.76;60.72;96692.16;5007138;28;20100;-80
2021/07/31 03:15:59;;;;;;;4.43;1.38;;;;;;;16.80;60.43;96687.09;5000761;28;20025;-80
2021/07/31 03:18:24;;;;;;;2.50;1.50;;;;;;;16.76;60.89;96688.75;4996753;28;20029;-79
2021/07/31 03:20:51;;;;;;;3.05;1.52;;;;;;;16.71;60.35;96688.84;4977667;28;20454;-80
2021/07/31 03:23:19;;;;;;;3.20;1.80;;;;;;;16.74;60.56;96696.94;5009731;28;20026;-80
2021/07/31 03:25:45;;;;;;;3.45;1.55;;;;;;;16.72;60.67;96693.03;4977663;28;20479;-80
2021/07/31 03:28:11;;;;;;;2.17;1.25;;;;;;;16.72;60.91;96687.78;4996387;28;20025;-80
2021/07/31 03:30:46;;;;;;;4.20;1.58;;;;;;;16.45;61.26;96684.91;4980930;28;20033;-80
2021/07/31 03:33:12;;;;;;;4.15;1.42;;;;;;;16.63;60.60;96691.09;4977882;28;20026;-80
2021/07/31 03:35:39;;;;;;;2.40;1.40;;;;;;;16.62;61.21;96700.09;5009553;28;20045;-80
2021/07/31 03:38:04;;;;;;;5.30;1.45;;;;;;;16.61;61.17;96689.88;4993587;28;20048;-81
2021/07/31 03:40:30;;;;;;;4.10;1.15;;;;;;;16.58;61.36;96700.97;5004883;28;20114;-80
2021/07/31 03:42:55;;;;;;;4.53;1.52;;;;;;;16.56;61.26;96701.25;5016840;28;20240;-81
2021/07/31 03:45:21;;;;;;;2.63;1.33;;;;;;;16.52;61.11;96704.75;4993303;28;20026;-81
2021/07/31 03:47:46;;;;;;;5.45;1.48;;;;;;;16.47;61.29;96697.78;5000892;28;20037;-81
2021/07/31 03:50:12;;;;;;;6.25;1.63;;;;;;;16.54;61.65;96711.28;4995799;28;20033;-81
2021/07/31 03:52:38;;;;;;;3.42;1.70;;;;;;;16.51;61.29;96713.72;5013017;28;20068;-81
2021/07/31 03:55:05;;;;;;;2.28;1.20;;;;;;;16.39;61.38;96703.72;4996064;28;20302;-81
2021/07/31 03:57:30;;;;;;;4.18;1.52;;;;;;;16.51;61.24;96705.84;4996692;28;20053;-80
2021/07/31 03:59:56;;;;;;;3.53;1.58;;;;;;;16.50;61.51;96709.53;5012785;28;20072;-80
2021/07/31 04:02:21;;;;;;;2.97;1.60;;;;;;;16.46;61.55;96704.09;4996078;28;20041;-81
2021/07/31 04:04:46;;;;;;;2.60;1.05;;;;;;;16.50;61.47;96712.16;5011998;28;20495;-81
2021/07/31 04:07:12;;;;;;;2.53;1.80;;;;;;;16.44;61.80;96709.63;4996613;28;20037;-81
2021/07/31 04:09:37;;;;;;;3.80;1.40;;;;;;;16.46;61.32;96718.00;4996104;28;20083;-81
2021/07/31 04:12:03;;;;;;;2.47;1.25;;;;;;;16.43;61.65;96710.72;4980173;28;20030;-81
2021/07/31 04:14:31;;;;;;;3.15;1.17;;;;;;;16.37;61.27;96719.75;5004245;28;20088;-81
2021/07/31 04:16:56;;;;;;;3.47;1.20;;;;;;;16.37;61.50;96717.13;5009993;28;20037;-81
2021/07/31 04:19:22;;;;;;;2.38;1.67;;;;;;;16.42;61.57;96722.28;4976682;28;20038;-81
2021/07/31 04:21:53;;;;;;;2.47;1.40;;;;;;;16.50;61.32;96712.94;4976821;28;20192;-80
2021/07/31 04:24:19;;;;;;;3.17;1.40;;;;;;;16.50;61.05;96707.66;5013097;28;20044;-81
2021/07/31 04:26:45;;;;;;;1.95;1.40;;;;;;;16.61;61.04;96727.44;4995929;28;20392;-81
2021/07/31 04:29:10;;;;;;;1.67;1.15;;;;;;;16.62;60.67;96718.47;4979266;28;20110;-81
2021/07/31 04:31:36;;;;;;;2.35;1.10;;;;;;;16.66;60.19;96724.69;5010783;28;20037;-81
2021/07/31 04:34:01;;;;;;;3.45;1.35;;;;;;;16.67;60.58;96718.38;4998676;28;20028;-81
2021/07/31 04:36:26;;;;;;;4.95;1.25;;;;;;;16.79;60.11;96727.59;5008350;28;20053;-81
2021/07/31 04:38:52;;;;;;;3.95;1.48;;;;;;;16.84;60.40;96724.88;4976313;28;20153;-82
2021/07/31 04:41:17;;;;;;;3.55;1.42;;;;;;;16.83;60.07;96713.56;4972357;28;20120;-81
2021/07/31 04:43:42;;;;;;;3.45;1.30;;;;;;;16.92;60.01;96723.41;4995106;28;20022;-81
2021/07/31 04:46:08;;;;;;;2.22;1.27;;;;;;;16.89;59.99;96716.88;4978529;28;20730;-81
2021/07/31 04:48:33;;;;;;;3.55;1.40;;;;;;;16.91;59.88;96717.38;5011909;28;20033;-80
2021/07/31 04:51:01;;;;;;;2.35;1.00;;;;;;;16.93;59.81;96725.75;4979448;28;20115;-80
2021/07/31 04:53:27;;;;;;;3.00;1.30;;;;;;;17.14;59.17;96727.94;4995313;28;20175;-81
2021/07/31 04:55:53;;;;;;;2.33;1.20;;;;;;;17.16;59.79;96731.03;4994924;28;20049;-81
2021/07/31 04:58:19;;;;;;;3.55;1.30;;;;;;;17.16;59.32;96731.03;5011712;28;20088;-81
2021/07/31 05:00:46;;;;;;;2.25;1.20;;;;;;;17.19;59.20;96728.59;4995416;28;20033;-81
2021/07/31 05:03:12;;;;;;;4.03;2.00;;;;;;;17.21;59.01;96728.31;5014276;28;20600;-81
2021/07/31 05:05:37;;;;;;;3.25;1.33;;;;;;;17.29;58.99;96732.06;4994790;28;20052;-81
2021/07/31 05:08:03;;;;;;;3.95;1.48;;;;;;;17.39;58.88;96735.25;5017650;28;20037;-81
2021/07/31 05:10:28;;;;;;;3.78;1.50;;;;;;;17.45;58.22;96743.03;4982168;28;20116;-81
2021/07/31 05:12:54;;;;;;;4.43;1.40;;;;;;;17.50;58.26;96740.28;4997127;28;20037;-81
2021/07/31 05:15:20;;;;;;;4.05;1.27;;;;;;;17.53;58.72;96745.72;5017795;28;20105;-82
2021/07/31 05:17:45;;;;;;;3.88;1.45;;;;;;;17.54;58.17;96742.00;4980976;28;20037;-81
2021/07/31 05:20:11;;;;;;;3.90;1.48;;;;;;;17.64;58.01;96740.97;4981712;28;20091;-81
2021/07/31 05:22:36;;;;;;;2.92;1.10;;;;;;;17.67;57.60;96743.03;4993846;28;20133;-81
2021/07/31 05:25:03;;;;;;;2.60;1.10;;;;;;;17.63;57.86;96728.13;5017393;28;20101;-81
2021/07/31 05:27:29;;;;;;;5.50;1.90;;;;;;;17.84;57.89;96744.97;4997977;28;20033;-81
2021/07/31 05:29:54;;;;;;;3.25;1.25;;;;;;;17.79;58.70;96743.25;4997701;28;20416;-81
2021/07/31 05:32:20;;;;;;;2.53;1.27;;;;;;;17.86;58.33;96734.94;4978436;28;20026;-81
2021/07/31 05:34:45;;;;;;;3.88;1.60;;;;;;;17.95;58.39;96753.41;4994569;28;20120;-81
2021/07/31 05:37:10;;;;;;;3.90;1.35;;;;;;;17.93;57.63;96740.56;4983207;28;20255;-81
2021/07/31 05:39:37;;;;;;;2.13;1.55;;;;;;;18.06;57.35;96751.28;5012694;28;20041;-80
2021/07/31 05:42:03;;;;;;;2.70;1.30;;;;;;;18.08;57.18;96755.19;4998032;28;20060;-81
2021/07/31 05:44:29;;;;;;;3.80;2.22;;;;;;;18.06;57.53;96746.81;4998368;28;20595;-81
2021/07/31 05:46:54;;;;;;;2.03;1.30;;;;;;;18.02;58.34;96745.84;4997997;28;20037;-81
2021/07/31 05:49:20;;;;;;;2.72;1.33;;;;;;;18.07;57.56;96745.72;5014785;28;20029;-81
2021/07/31 05:51:46;;;;;;;3.83;1.20;;;;;;;18.23;57.67;96750.59;5013849;28;20037;-81
2021/07/31 05:54:11;;;;;;;2.97;1.17;;;;;;;18.25;57.01;96756.34;4997567;28;20104;-81
2021/07/31 05:56:37;;;;;;;3.38;1.15;;;;;;;18.31;56.49;96739.31;4997967;28;20488;-81
2021/07/31 05:59:03;;;;;;;5.93;2.20;;;;;;;18.42;55.60;96745.09;4998085;28;20053;-81
2021/07/31 06:01:33;;;;;;;5.82;2.00;;;;;;;18.40;57.60;96748.03;4995390;28;20030;-81
2021/07/31 06:03:58;;;;;;;3.47;1.40;;;;;;;18.58;56.26;96746.22;4995423;28;20149;-80
2021/07/31 06:06:24;;;;;;;3.40;1.50;;;;;;;18.58;56.08;96745.47;4995449;28;20152;-80
2021/07/31 06:08:49;;;;;;;6.47;1.67;;;;;;;18.69;55.74;96754.63;4981451;28;20026;-81
2021/07/31 06:11:14;;;;;;;3.55;1.27;;;;;;;18.65;56.98;96745.78;4997689;28;20395;-80
2021/07/31 06:13:40;;;;;;;4.32;2.15;;;;;;;18.79;56.21;96741.16;4978377;28;20529;-81
2021/07/31 06:16:09;;;;;;;4.13;1.50;;;;;;;18.78;55.53;96739.59;4996759;28;20029;-81
2021/07/31 06:18:37;;;;;;;3.08;1.70;;;;;;;18.99;56.11;96750.38;5010044;28;20473;-80
2021/07/31 06:21:03;;;;;;;3.88;1.45;;;;;;;19.08;55.58;96753.00;5011004;28;20496;-80
2021/07/31 06:23:29;;;;;;;3.10;1.90;;;;;;;19.27;55.27;96742.91;4994586;28;20025;-80
2021/07/31 06:26:00;;;;;;;4.18;1.70;;;;;;;19.19;54.71;96748.97;4994277;28;20034;-80
2021/07/31 06:28:25;;;;;;;3.80;1.90;;;;;;;19.39;54.35;96750.19;4992372;28;20044;-81
2021/07/31 06:30:51;;;;;;;4.43;1.45;;;;;;;19.48;54.60;96760.75;4979285;28;20033;-80
2021/07/31 06:33:16;;;;;;;2.03;1.30;;;;;;;19.60;54.01;96753.00;4993968;28;20048;-81
2021/07/31 06:35:41;;;;;;;3.78;1.25;;;;;;;19.79;54.12;96757.16;5011403;28;20037;-81
2021/07/31 06:38:07;;;;;;;3.88;1.75;;;;;;;19.96;54.30;96759.78;5007412;28;20039;-80
2021/07/31 06:40:33;;;;;;;2.97;1.77;;;;;;;20.27;52.02;96764.03;4994150;28;20049;-81
2021/07/31 06:42:58;;;;;;;3.35;1.40;;;;;;;20.36;52.46;96762.13;5000356;28;20021;-80
2021/07/31 06:45:25;;;;;;;2.30;0.93;;;;;;;20.61;51.35;96762.31;4961105;28;20030;-80
2021/07/31 06:47:50;;;;;;;2.38;1.10;;;;;;;20.94;50.03;96753.75;5006913;28;20042;-81
2021/07/31 06:50:16;;;;;;;2.80;1.40;;;;;;;20.73;51.69;96743.94;4977745;28;20034;-81
2021/07/31 06:52:41;;;;;;;4.50;1.20;;;;;;;20.86;52.06;96762.53;4994207;28;20026;-81
2021/07/31 06:55:07;;;;;;;6.30;1.63;;;;;;;21.17;51.55;96766.69;5009581;28;20037;-80
2021/07/31 06:57:32;;;;;;;6.38;1.40;;;;;;;21.24;50.50;96757.09;5011457;28;20084;-80
2021/07/31 07:00:01;;;;;;;4.22;1.48;;;;;;;21.39;50.05;96763.69;5027473;28;20419;-81
2021/07/31 07:02:26;;;;;;;3.45;1.60;;;;;;;21.27;50.64;96758.34;4980032;28;20069;-80
2021/07/31 07:04:52;;;;;;;6.45;1.63;;;;;;;21.09;51.30;96760.34;4980122;28;20065;-80
2021/07/31 07:07:19;;;;;;;1.83;1.40;;;;;;;20.96;50.00;96756.84;4997042;28;20065;-80
2021/07/31 07:09:45;;;;;;;5.80;1.27;;;;;;;20.78;51.02;96764.13;5012885;28;20095;-81
2021/07/31 07:12:10;;;;;;;3.65;1.67;;;;;;;20.88;51.50;96755.03;5010018;28;20029;-81
2021/07/31 07:14:36;;;;;;;4.13;1.50;;;;;;;21.14;51.02;96750.31;4983908;28;20146;-81
2021/07/31 07:17:05;;;;;;;2.33;1.30;;;;;;;21.20;51.24;96760.72;5009666;28;20034;-80
2021/07/31 07:19:31;;;;;;;2.75;1.40;;;;;;;21.59;50.53;96758.72;5000538;28;20063;-80
2021/07/31 07:21:57;;;;;;;3.58;1.55;;;;;;;21.91;48.47;96766.97;5013829;28;20400;-80
2021/07/31 07:24:22;;;;;;;3.75;1.52;;;;;;;22.13;47.82;96763.16;4984457;28;20033;-80
2021/07/31 07:26:48;;;;;;;3.13;1.45;;;;;;;22.14;48.78;96754.88;5021755;28;20489;-83
2021/07/31 07:29:13;;;;;;;4.00;1.48;;;;;;;22.38;47.47;96756.00;4997223;28;20030;-80
2021/07/31 07:31:39;;;;;;;3.20;1.30;;;;;;;22.41;47.76;96752.69;4996707;28;20021;-80
2021/07/31 07:34:05;;;;;;;2.00;1.40;;;;;;;22.49;48.13;96766.97;4993449;28;20088;-80
2021/07/31 07:36:30;;;;;;;5.13;1.50;;;;;;;22.72;47.11;96756.66;4972341;28;20472;-80
2021/07/31 07:38:55;;;;;;;3.22;2.05;;;;;;;22.79;46.45;96759.53;4993989;28;20072;-80
2021/07/31 07:41:21;;;;;;;5.03;1.73;;;;;;;22.96;46.97;96761.94;4996132;28;20029;-80
2021/07/31 07:43:47;;;;;;;3.97;2.22;;;;;;;23.27;45.22;96752.59;4993649;28;20038;-80
2021/07/31 07:46:16;;;;;;;4.18;1.52;;;;;;;23.29;47.06;96753.03;4992900;28;20053;-81
2021/07/31 07:48:43;;;;;;;2.55;1.88;;;;;;;23.48;46.13;96748.97;4995820;28;20033;-80
2021/07/31 07:51:08;;;;;;;2.95;1.33;;;;;;;23.70;46.08;96755.59;4993829;28;20062;-82
2021/07/31 07:53:34;;;;;;;5.03;2.00;;;;;;;24.01;44.95;96765.56;5026160;28;20049;-80
2021/07/31 07:55:59;;;;;;;1.95;1.17;;;;;;;23.88;44.37;96756.09;4989922;28;20530;-80
2021/07/31 07:58:24;;;;;;;3.83;1.80;;;;;;;23.80;44.21;96763.09;5008575;28;20060;-80
2021/07/31 08:00:50;;;;;;;5.25;1.75;;;;;;;23.85;45.15;96756.78;4979539;28;20032;-81
2021/07/31 08:03:16;;;;;;;3.72;1.60;;;;;;;24.16;43.88;96761.34;4978999;28;20060;-80
2021/07/31 08:05:42;;;;;;;2.83;1.40;;;;;;;24.42;42.21;96760.06;5007264;28;20033;-80
2021/07/31 08:08:09;;;;;;;2.80;1.42;;;;;;;24.36;41.81;96764.09;4976777;28;20045;-80
2021/07/31 08:10:36;;;;;;;3.90;1.30;;;;;;;24.40;43.32;96770.28;5006690;28;20108;-80
2021/07/31 08:13:03;;;;;;;3.15;1.38;;;;;;;24.52;41.77;96769.41;4961110;28;20034;-80
2021/07/31 08:15:28;;;;;;;2.85;1.23;;;;;;;24.15;42.77;96759.06;5018952;28;20025;-80
2021/07/31 08:17:54;;;;;;;10.75;2.47;;;;;;;23.67;44.01;96772.25;4991351;28;20470;-80
2021/07/31 08:20:20;;;;;;;3.47;1.40;;;;;;;23.32;45.84;96773.63;5007448;28;20033;-80
2021/07/31 08:22:45;;;;;;;2.78;1.55;;;;;;;23.17;45.19;96758.38;4993732;28;20574;-80
2021/07/31 08:25:11;;;;;;;2.22;1.13;;;;;;;23.17;45.85;96771.66;4982532;28;20073;-80
2021/07/31 08:27:37;;;;;;;3.40;1.20;;;;;;;23.36;44.04;96763.84;4994278;28;20034;-80
2021/07/31 08:30:04;;;;;;;1.90;1.20;;;;;;;23.60;43.33;96756.91;5030256;28;20029;-80
2021/07/31 08:32:30;;;;;;;4.68;1.70;;;;;;;23.97;42.49;96763.91;4979626;28;20026;-80
2021/07/31 08:34:55;;;;;;;2.75;1.90;;;;;;;23.93;44.56;96758.50;4992280;28;20599;-80
2021/07/31 08:37:21;;;;;;;4.55;1.30;;;;;;;24.33;44.45;96757.56;4995450;28;20088;-80
2021/07/31 08:39:46;;;;;;;3.63;1.75;;;;;;;24.80;43.23;96756.78;4996824;28;20205;-80
2021/07/31 08:42:12;;;;;;;3.45;1.25;;;;;;;25.16;42.83;96752.19;4992429;28;20575;-81
2021/07/31 08:44:38;;;;;;;2.65;1.50;;;;;;;25.56;41.88;96759.06;4973094;28;20481;-80
2021/07/31 08:47:05;;;;;;;2.45;1.15;;;;;;;25.61;40.75;96766.00;4971909;28;20036;-80
2021/07/31 08:49:37;;;;;;;4.78;1.52;;;;;;;25.47;40.64;96760.44;4992994;28;20079;-81
2021/07/31 08:52:04;;;;;;;2.85;1.50;;;;;;;25.13;42.48;96758.22;5003526;28;20084;-81
2021/07/31 08:54:30;;;;;;;4.20;1.48;;;;;;;24.88;42.11;96756.91;4993565;28;20030;-81
2021/07/31 08:56:55;;;;;;;3.83;1.50;;;;;;;25.08;42.50;96760.38;5005362;28;20034;-80
2021/07/31 08:59:28;;;;;;;3.38;1.77;;;;;;;24.54;44.39;96764.50;5012335;28;20076;-80
2021/07/31 09:01:54;;;;;;;2.47;1.63;;;;;;;25.10;42.78;96758.91;5011609;28;20044;-80
2021/07/31 09:04:21;;;;;;;2.35;1.23;;;;;;;25.23;41.37;96760.31;4977434;28;20030;-80
2021/07/31 09:06:47;;;;;;;2.10;1.60;;;;;;;25.10;41.20;96753.56;5012056;28;20030;-80
2021/07/31 09:09:12;;;;;;;3.05;1.55;;;;;;;24.93;42.21;96765.41;4980009;28;20487;-80
2021/07/31 09:12:00;;;;;;;4.45;1.90;;;;;;;24.52;41.87;96764.84;5006265;28;20522;-81
2021/07/31 09:14:27;;;;;;;2.70;1.50;;;;;;;24.48;42.13;96751.47;4973731;28;20081;-79
2021/07/31 09:16:53;;;;;;;1.58;1.48;;;;;;;24.47;42.58;96765.91;4993289;28;20041;-80
2021/07/31 09:19:19;;;;;;;2.75;1.65;;;;;;;24.55;40.86;96761.53;4982775;28;20037;-80
2021/07/31 09:21:46;;;;;;;3.42;1.55;;;;;;;24.74;40.58;96763.47;4994705;28;20029;-80
2021/07/31 09:24:20;;;;;;;4.97;2.00;;;;;;;24.39;41.57;96766.09;4994081;28;20088;-80
2021/07/31 09:26:51;;;;;;;2.55;2.00;;;;;;;24.04;40.42;96764.88;4979144;28;20053;-80
2021/07/31 09:29:37;;;;;;;3.15;1.50;;;;;;;23.55;43.81;96775.75;5012012;28;20653;-80
2021/07/31 09:32:07;;;;;;;3.50;1.52;;;;;;;23.54;42.87;96771.53;4989438;28;20033;-80
2021/07/31 09:34:35;;;;;;;14.38;2.42;;;;;;;23.16;46.00;96772.75;5008124;28;20116;-80
2021/07/31 09:37:16;;;;;;;3.10;1.85;;;;;;;22.94;45.69;96780.06;5027660;28;20030;-81
2021/07/31 09:39:49;;;;;;;3.20;1.50;;;;;;;23.04;45.01;96773.53;4999538;28;20528;-80
2021/07/31 09:42:35;;;;;;;5.05;1.77;;;;;;;23.13;47.69;96768.13;5007507;28;20579;-80
2021/07/31 09:45:04;;;;;;;2.00;1.67;;;;;;;23.61;43.14;96779.69;5006713;28;20447;-80
2021/07/31 09:47:30;;;;;;;2.10;1.30;;;;;;;24.15;42.20;96767.81;4996270;28;20091;-80
2021/07/31 09:49:58;;;;;;;4.07;1.23;;;;;;;24.63;42.59;96765.13;5014933;28;20037;-81
2021/07/31 09:52:24;;;;;;;2.45;1.30;;;;;;;25.09;41.20;96760.03;4999508;28;20021;-80
2021/07/31 09:54:50;;;;;;;2.65;1.42;;;;;;;25.37;41.77;96767.09;5014830;28;20033;-80
2021/07/31 09:57:16;;;;;;;2.95;1.60;;;;;;;25.78;39.09;96764.78;5015240;28;20400;-80
2021/07/31 09:59:50;;;;;;;5.38;1.60;;;;;;;25.39;40.17;96756.84;4982491;28;20044;-81
2021/07/31 10:02:20;;;;;;;2.03;1.50;;;;;;;25.64;40.03;96751.22;4998450;28;20071;-80
2021/07/31 10:04:48;;;;;;;3.92;1.40;;;;;;;25.31;39.57;96747.16;4978271;28;20088;-80
2021/07/31 10:07:15;;;;;;;1.90;1.00;;;;;;;25.74;39.27;96758.63;5009707;28;20070;-80
2021/07/31 10:09:49;;;;;;;3.13;1.67;;;;;;;25.49;41.09;96766.94;4980381;28;20038;-80
2021/07/31 10:12:16;;;;;;;2.53;1.70;;;;;;;25.69;40.12;96761.59;5011153;28;20041;-81
2021/07/31 10:14:42;;;;;;;4.07;2.08;;;;;;;25.56;42.57;96766.31;5010919;28;20291;-80
2021/07/31 10:17:09;;;;;;;4.28;1.70;;;;;;;25.35;41.31;96761.34;5014970;28;20059;-80
2021/07/31 10:19:42;;;;;;;2.42;1.63;;;;;;;25.40;39.78;96755.72;5010192;28;20122;-81
2021/07/31 10:22:08;;;;;;;2.75;1.88;;;;;;;25.13;40.23;96742.22;4998518;28;20492;-80
2021/07/31 10:25:04;;;;;;;2.95;1.20;;;;;;;24.82;40.25;96757.19;4994457;28;20030;-80
2021/07/31 10:27:29;;;;;;;2.38;1.50;;;;;;;24.78;40.51;96758.22;4974803;28;20034;-81
2021/07/31 10:29:55;;;;;;;2.40;1.48;;;;;;;24.63;40.81;96760.59;5025414;28;20040;-81
2021/07/31 10:32:35;;;;;;;3.55;1.60;;;;;;;24.28;43.02;96763.94;5003248;28;20159;-81
2021/07/31 10:35:08;;;;;;;2.08;1.30;;;;;;;24.17;41.24;96760.25;4996691;28;20061;-80
2021/07/31 10:37:37;;;;;;;3.53;1.50;;;;;;;24.15;40.95;96765.13;4981143;28;20029;-81
2021/07/31 10:40:11;;;;;;;2.42;1.27;;;;;;;24.03;41.75;96760.66;4991200;28;20132;-81
2021/07/31 10:42:51;;;;;;;2.03;1.38;;;;;;;24.40;40.80;96760.41;4976881;28;20026;-81
2021/07/31 10:45:18;;;;;;;2.95;1.73;;;;;;;25.14;42.53;96762.44;4992720;28;20030;-82
2021/07/31 10:47:45;;;;;;;1.85;1.40;;;;;;;25.39;40.37;96764.84;4989563;28;20037;-82
2021/07/31 10:50:26;;;;;;;2.45;1.60;;;;;;;25.35;38.70;96758.69;5008375;28;20444;-81
2021/07/31 10:53:14;;;;;;;2.72;1.60;;;;;;;25.47;41.99;96757.75;4999344;28;20045;-81
2021/07/31 10:55:42;;;;;;;2.67;1.70;;;;;;;25.85;40.28;96758.81;4974942;28;20558;-81
2021/07/31 10:58:10;;;;;;;2.72;1.42;;;;;;;26.33;37.85;96749.34;5024545;28;20059;-80
2021/07/31 11:00:40;;;;;;;2.58;1.30;;;;;;;26.16;38.92;96753.25;5009032;28;20462;-82
2021/07/31 11:03:14;;;;;;;2.67;1.58;;;;;;;25.83;40.87;96755.75;4965530;28;20529;-81
2021/07/31 11:05:51;;;;;;;2.33;1.70;;;;;;;25.49;39.40;96756.28;5001910;28;20087;-82
2021/07/31 11:08:17;;;;;;;2.42;1.45;;;;;;;25.66;39.42;96760.41;5012128;28;20119;-80
2021/07/31 11:10:44;;;;;;;1.65;1.55;;;;;;;25.52;38.12;96758.25;5029850;28;20544;-80
2021/07/31 11:13:11;;;;;;;1.92;1.67;;;;;;;25.23;39.22;96755.00;4991992;28;20036;-81
2021/07/31 11:15:59;;;;;;;3.00;1.63;;;;;;;25.28;41.92;96763.88;4992698;28;20032;-81
2021/07/31 11:18:42;;;;;;;3.05;1.55;;;;;;;25.55;41.16;96754.88;4997653;28;20061;-82
2021/07/31 11:21:25;;;;;;;2.53;1.45;;;;;;;25.42;38.84;96748.16;5009918;28;20065;-81
2021/07/31 11:23:52;;;;;;;2.30;1.90;;;;;;;25.28;40.93;96761.22;4976945;28;20018;-82
2021/07/31 11:26:52;;;;;;;2.67;1.90;;;;;;;24.77;41.92;96762.03;4993568;28;20043;-81
2021/07/31 11:29:21;;;;;;;3.22;1.45;;;;;;;24.82;39.81;96759.09;4993332;28;20057;-82
2021/07/31 11:31:56;;;;;;;3.38;1.77;;;;;;;24.57;42.80;96761.94;4999610;28;20026;-81
2021/07/31 11:34:21;;;;;;;2.90;1.80;;;;;;;24.87;42.46;96766.81;5009821;28;20499;-81